UDYZ/EVN METAR and TAF weather

Enter ICAO airport designator
Station Type Date Time Source
UDYZ METAR 2019/12/12 17:00 UTC NOAA

UDYZ 121700Z 00000KT 6000 BKN029 03/00 Q1018 R09/010070 NOSIG


Station Type Date Time Source
UDYZ Decoded METAR 2019/12/12 17:00 UTC NOAA

Station name not available
Dec 12, 2019 - 12:00 PM EST / 2019.12.12 1700 UTC
Wind: Calm:0
Visibility: 3 mile(s):0
Sky conditions: mostly cloudy
Temperature: 37 F (3 C)
Dew Point: 32 F (0 C)
Relative Humidity: 80%
Pressure (altimeter): 30.06 in. Hg (1018 hPa)
ob: UDYZ 121700Z 00000KT 6000 BKN029 03/00 Q1018 R09/010070 NOSIG
cycle: 17

Station Type Date Time Source
UDYZ TAF 2019/12/12 12:00 UTC NOAA

TAF UDYZ 121105Z 1212/1312 VRB06KT 3500 BR BKN030
TEMPO 1218/1306 1000 BR OVC010

Example: see airport list